Providence, Rhode Island
Traffic Map
Current Weather Conditions
Providence, Rhode Island
Overcast Light Snow
Overcast
-8°
Feels Like: -17°
Wind Chill: -17° Ceiling: 1000
Heat Index: -8° Visibility: 0.75mi
Dew Point: -11° Wind: 23mph
Humidity: 81% Direction: 350° (N)
Pressure: 29.49in Gusts: 31mph
Raw Report DataKPVD 271651Z 35020G27KT 3/4SM R05/2400V2800FT -SN BLSN VV010 M08/M11 A2949 RMK AO2 PK WND 35028/1639 SLP987 P0004 T10781106 $
Traffic Incident Summary
Active as of:
Severity:
Category:
InformationThere was an issue retrieving the traffic information for this location. Please try a different location or try again shortly.
Advertisements
Track Severe Weather on mobile